createdAt,value
2022-08-22T00:00:11.611Z,96733.41
2022-08-22T00:03:08.941Z,96732.75
2022-08-22T00:03:12.195Z,96732.39
2022-08-22T00:03:15.561Z,96729.25
2022-08-22T00:03:18.473Z,96732.84
2022-08-22T00:05:59.090Z,96739.94
2022-08-22T00:08:38.582Z,96731.29
2022-08-22T00:11:43.602Z,96731.64
2022-08-22T00:14:25.765Z,96738.34
2022-08-22T00:17:07.181Z,96746.81
2022-08-22T00:19:42.805Z,96743.28
2022-08-22T00:22:30.677Z,96737.42
2022-08-22T00:25:49.761Z,96738.23
2022-08-22T00:28:38.958Z,96736.47
2022-08-22T00:31:42.552Z,96738.48
2022-08-22T00:34:24.310Z,96738.30
2022-08-22T00:37:14.097Z,96737.55
2022-08-22T00:40:05.318Z,96733.24
2022-08-22T00:43:07.949Z,96740.15
2022-08-22T00:45:59.543Z,96737.04
2022-08-22T00:48:48.080Z,96733.48
2022-08-22T00:51:40.062Z,96739.79
2022-08-22T00:54:46.932Z,96742.12
2022-08-22T00:57:29.546Z,96746.04
2022-08-22T01:00:13.452Z,96742.30
2022-08-22T01:03:20.681Z,96746.04
2022-08-22T01:06:15.120Z,96748.52
2022-08-22T01:09:22.923Z,96749.30
2022-08-22T01:12:26.278Z,96745.17
2022-08-22T01:14:58.701Z,96757.55
2022-08-22T01:18:08.758Z,96751.69
2022-08-22T01:21:24.789Z,96754.86
2022-08-22T01:24:19.008Z,96760.98
2022-08-22T01:27:24.674Z,96757.69
2022-08-22T01:30:21.867Z,96753.77
2022-08-22T01:33:20.245Z,96756.19
2022-08-22T01:36:01.731Z,96755.64
2022-08-22T01:39:14.342Z,96757.27
2022-08-22T01:42:02.686Z,96762.56
2022-08-22T01:44:47.630Z,96757.30
2022-08-22T01:47:26.134Z,96759.06
2022-08-22T01:49:59.885Z,96757.89
2022-08-22T01:53:09.199Z,96756.11
2022-08-22T01:56:00.882Z,96758.05
2022-08-22T01:58:33.729Z,96765.27
2022-08-22T02:01:41.900Z,96767.23
2022-08-22T02:04:23.397Z,96768.81
2022-08-22T02:07:24.161Z,96766.90
2022-08-22T02:10:07.474Z,96770.63
2022-08-22T02:12:49.446Z,96766.94
2022-08-22T02:15:28.198Z,96775.78
2022-08-22T02:18:10.538Z,96771.69
2022-08-22T02:20:43.700Z,96767.17
2022-08-22T02:23:24.340Z,96758.78
2022-08-22T02:26:02.956Z,96765.91
2022-08-22T02:29:06.150Z,96764.19
2022-08-22T02:31:47.041Z,96762.08
2022-08-22T02:34:32.781Z,96762.08
2022-08-22T02:37:11.907Z,96764.42
2022-08-22T02:39:48.152Z,96762.48
2022-08-22T02:42:27.404Z,96766.59
2022-08-22T02:45:22.966Z,96755.06
2022-08-22T02:48:04.498Z,96765.27
2022-08-22T02:50:46.975Z,96756.44
2022-08-22T02:53:22.141Z,96754.23
2022-08-22T02:56:22.930Z,96758.17
2022-08-22T02:59:19.738Z,96764.86
2022-08-22T03:01:58.280Z,96759.98
2022-08-22T03:04:46.195Z,96764.52
2022-08-22T03:07:28.437Z,96761.77
2022-08-22T03:10:27.706Z,96757.26
2022-08-22T03:13:18.984Z,96756.71
2022-08-22T03:16:02.292Z,96763.17
2022-08-22T03:19:08.187Z,96762.23
2022-08-22T03:22:03.688Z,96757.16
2022-08-22T03:24:40.271Z,96764.05
2022-08-22T03:27:33.272Z,96763.11
2022-08-22T03:30:11.985Z,96772.91
2022-08-22T03:32:59.281Z,96775.66
2022-08-22T03:35:38.368Z,96774.52
2022-08-22T03:38:32.231Z,96770.39
2022-08-22T03:41:26.026Z,96779.77
2022-08-22T03:44:17.549Z,96780.37
2022-08-22T03:47:03.119Z,96785.09
2022-08-22T03:49:55.670Z,96793.91
2022-08-22T03:53:04.129Z,96795.46
2022-08-22T03:56:11.994Z,96799.39
2022-08-22T03:59:18.520Z,96794.08
2022-08-22T04:02:42.903Z,96796.64
2022-08-22T04:05:26.354Z,96787.05
2022-08-22T04:08:09.937Z,96777.64
2022-08-22T04:11:02.619Z,96786.88
2022-08-22T04:14:14.697Z,96790.98
2022-08-22T04:17:07.001Z,96792.36
2022-08-22T04:19:55.117Z,96802.38
2022-08-22T04:22:33.998Z,96801.98
2022-08-22T04:25:30.222Z,96800.83
2022-08-22T04:28:09.435Z,96803.95
2022-08-22T04:30:48.613Z,96798.05
2022-08-22T04:33:27.860Z,96802.16
2022-08-22T04:36:09.659Z,96803.51
2022-08-22T04:38:57.614Z,96799.58
2022-08-22T04:41:36.289Z,96797.78
2022-08-22T04:44:27.648Z,96805.76
2022-08-22T04:47:03.448Z,96802.39
2022-08-22T04:49:48.568Z,96807.09
2022-08-22T04:52:39.859Z,96797.41
2022-08-22T04:55:42.537Z,96799.31
2022-08-22T04:58:37.247Z,96800.83
2022-08-22T05:01:27.889Z,96798.59
2022-08-22T05:04:12.674Z,96797.17
2022-08-22T05:06:45.905Z,96792.23
2022-08-22T05:09:21.231Z,96798.25
2022-08-22T05:11:57.555Z,96800.39
2022-08-22T05:14:30.639Z,96800.75
2022-08-22T05:16:59.990Z,96804.83
2022-08-22T05:19:38.015Z,96805.19
2022-08-22T05:22:14.561Z,96809.09
2022-08-22T05:24:49.217Z,96799.56
2022-08-22T05:27:25.118Z,96793.38
2022-08-22T05:29:58.303Z,96794.83
2022-08-22T05:32:30.725Z,96800.42
2022-08-22T05:35:02.586Z,96803.25
2022-08-22T05:37:50.090Z,96801.11
2022-08-22T05:40:25.782Z,96805.12
2022-08-22T05:42:56.765Z,96810.05
2022-08-22T05:45:27.227Z,96811.88
2022-08-22T05:48:09.208Z,96802.09
2022-08-22T05:50:54.116Z,96798.66
2022-08-22T05:53:36.135Z,96794.61
2022-08-22T05:56:28.532Z,96798.82
2022-08-22T05:59:03.758Z,96792.23
2022-08-22T06:01:48.399Z,96791.03
2022-08-22T06:04:48.037Z,96788.27
2022-08-22T06:07:31.204Z,96788.44
2022-08-22T06:10:18.854Z,96795.54
2022-08-22T06:13:03.622Z,96802.61
2022-08-22T06:15:45.919Z,96794.66
2022-08-22T06:18:21.164Z,96805.97
2022-08-22T06:20:59.885Z,96810.19
2022-08-22T06:23:32.958Z,96800.52
2022-08-22T06:26:01.365Z,96800.30
2022-08-22T06:28:37.936Z,96800.42
2022-08-22T06:31:18.465Z,96803.34
2022-08-22T06:34:08.454Z,96809.49
2022-08-22T06:36:41.127Z,96798.60
2022-08-22T06:39:31.651Z,96808.66
2022-08-22T06:42:24.480Z,96811.45
2022-08-22T06:45:16.012Z,96813.08
2022-08-22T06:48:00.661Z,96815.16
2022-08-22T06:50:33.026Z,96811.53
2022-08-22T06:53:17.654Z,96804.99
2022-08-22T06:55:55.301Z,96809.84
2022-08-22T06:58:45.855Z,96809.67
2022-08-22T07:01:21.945Z,96809.95
2022-08-22T07:03:58.132Z,96811.94
2022-08-22T07:06:40.995Z,96813.85
2022-08-22T07:09:25.834Z,96810.89
2022-08-22T07:11:56.706Z,96812.64
2022-08-22T07:14:42.369Z,96816.17
2022-08-22T07:17:21.118Z,96812.33
2022-08-22T07:20:21.036Z,96811.85
2022-08-22T07:22:59.998Z,96803.99
2022-08-22T07:25:29.356Z,96810.85
2022-08-22T07:28:21.945Z,96813.32
2022-08-22T07:31:08.583Z,96811.77
2022-08-22T07:33:47.353Z,96820.48
2022-08-22T07:36:38.701Z,96822.89
2022-08-22T07:39:17.743Z,96827.23
2022-08-22T07:42:10.917Z,96821.95
2022-08-22T07:44:47.135Z,96824.27
2022-08-22T07:47:26.110Z,96824.64
2022-08-22T07:49:56.516Z,96826.88
2022-08-22T07:52:25.107Z,96824.02
2022-08-22T07:55:01.085Z,96819.27
2022-08-22T07:57:33.518Z,96822.72
2022-08-22T08:00:08.310Z,96828.95
2022-08-22T08:02:41.706Z,96836.02
2022-08-22T08:05:10.756Z,96838.78
2022-08-22T08:07:43.624Z,96831.02
2022-08-22T08:10:14.186Z,96837.20
2022-08-22T08:12:57.895Z,96835.93
2022-08-22T08:15:20.686Z,96833.32
2022-08-22T08:17:54.173Z,96832.90
2022-08-22T08:20:25.700Z,96836.24
2022-08-22T08:22:55.599Z,96835.42
2022-08-22T08:25:27.631Z,96830.66
2022-08-22T08:28:18.990Z,96831.33
2022-08-22T08:30:59.781Z,96831.89
2022-08-22T08:33:30.860Z,96834.16
2022-08-22T08:36:16.109Z,96829.16
2022-08-22T08:38:57.683Z,96832.04
2022-08-22T08:41:51.972Z,96827.98
2022-08-22T08:44:39.912Z,96837.17
2022-08-22T08:47:22.476Z,96834.95
2022-08-22T08:50:01.391Z,96833.86
2022-08-22T08:53:05.800Z,96830.63
2022-08-22T08:56:08.069Z,96831.09
2022-08-22T08:59:01.613Z,96836.18
2022-08-22T09:01:47.012Z,96826.80
2022-08-22T09:04:55.495Z,96830.91
2022-08-22T09:07:52.358Z,96828.95
2022-08-22T09:11:04.330Z,96824.30
2022-08-22T09:14:16.661Z,96825.41
2022-08-22T09:17:12.438Z,96820.63
2022-08-22T09:20:19.740Z,96818.23
2022-08-22T09:23:28.876Z,96819.84
2022-08-22T09:26:20.183Z,96813.37
2022-08-22T09:28:58.496Z,96811.98
2022-08-22T09:31:47.634Z,96811.41
2022-08-22T09:34:25.496Z,96819.34
2022-08-22T09:37:07.532Z,96813.88
2022-08-22T09:39:43.622Z,96812.31
2022-08-22T09:42:22.525Z,96812.97
2022-08-22T09:45:33.777Z,96806.42
2022-08-22T09:48:34.043Z,96798.97
2022-08-22T09:51:34.196Z,96798.08
2022-08-22T09:54:16.573Z,96793.91
2022-08-22T09:57:03.626Z,96794.66
2022-08-22T10:00:17.603Z,96797.43
2022-08-22T10:03:08.886Z,96791.87
2022-08-22T10:05:53.923Z,96787.14
2022-08-22T10:08:45.983Z,96789.75
2022-08-22T10:11:27.247Z,96786.20
2022-08-22T10:14:05.071Z,96784.91
2022-08-22T10:17:21.635Z,96780.05
2022-08-22T10:20:01.020Z,96786.83
2022-08-22T10:23:06.119Z,96780.86
2022-08-22T10:25:53.338Z,96772.20
2022-08-22T10:28:39.171Z,96776.23
2022-08-22T10:31:58.614Z,96779.52
2022-08-22T10:34:21.799Z,96772.25
2022-08-22T10:37:18.440Z,96777.35
2022-08-22T10:40:14.692Z,96777.19
2022-08-22T10:42:57.047Z,96778.13
2022-08-22T10:45:37.429Z,96777.98
2022-08-22T10:48:10.474Z,96779.82
2022-08-22T10:50:47.198Z,96784.00
2022-08-22T10:53:35.295Z,96779.22
2022-08-22T10:56:33.769Z,96781.22
2022-08-22T10:59:10.066Z,96774.52
2022-08-22T11:01:44.257Z,96781.00
2022-08-22T11:04:28.324Z,96784.50
2022-08-22T11:07:38.099Z,96779.01
2022-08-22T11:10:30.884Z,96780.03
2022-08-22T11:13:14.582Z,96782.13
2022-08-22T11:16:32.053Z,96783.00
2022-08-22T11:19:33.781Z,96782.63
2022-08-22T11:22:22.451Z,96780.36
2022-08-22T11:25:40.650Z,96791.34
2022-08-22T11:28:20.043Z,96799.92
2022-08-22T11:31:19.403Z,96795.86
2022-08-22T11:34:11.633Z,96803.92
2022-08-22T11:36:47.848Z,96803.88
2022-08-22T11:39:25.391Z,96800.45
2022-08-22T11:42:21.792Z,96798.41
2022-08-22T11:44:58.475Z,96792.00
2022-08-22T11:47:31.572Z,96784.52
2022-08-22T11:50:34.021Z,96780.66
2022-08-22T11:53:29.821Z,96769.80
2022-08-22T11:56:27.051Z,96769.80
2022-08-22T11:59:02.918Z,96756.52
2022-08-22T12:02:00.944Z,96757.05
2022-08-22T12:04:35.820Z,96761.73
2022-08-22T12:07:31.013Z,96753.55
2022-08-22T12:10:19.387Z,96761.98
2022-08-22T12:13:08.616Z,96761.37
2022-08-22T12:15:58.592Z,96757.91
2022-08-22T12:18:59.080Z,96757.95
2022-08-22T12:21:56.736Z,96754.59
2022-08-22T12:24:47.930Z,96744.80
2022-08-22T12:27:29.953Z,96747.88
2022-08-22T12:30:29.716Z,96748.17
2022-08-22T12:33:27.520Z,96741.66
2022-08-22T12:36:06.811Z,96730.82
2022-08-22T12:39:03.092Z,96732.71
2022-08-22T12:41:48.378Z,96734.73
2022-08-22T12:44:41.957Z,96735.67
2022-08-22T12:47:42.841Z,96733.05
2022-08-22T12:50:40.463Z,96732.58
2022-08-22T12:53:39.472Z,96745.30
2022-08-22T12:56:21.394Z,96739.12
2022-08-22T12:59:36.481Z,96743.59
2022-08-22T13:02:35.527Z,96741.41
2022-08-22T13:05:13.304Z,96737.52
2022-08-22T13:07:48.257Z,96739.67
2022-08-22T13:10:37.646Z,96735.67
2022-08-22T13:13:12.180Z,96730.75
2022-08-22T13:15:53.867Z,96731.00
2022-08-22T13:18:31.659Z,96739.98
2022-08-22T13:20:58.299Z,96749.39
2022-08-22T13:23:39.518Z,96760.13
2022-08-22T13:26:11.753Z,96774.60
2022-08-22T13:29:24.513Z,96765.91
2022-08-22T13:31:38.189Z,96771.42
2022-08-22T13:34:14.485Z,96770.87
2022-08-22T13:36:51.816Z,96773.83
2022-08-22T13:39:27.139Z,96772.58
2022-08-22T13:41:59.311Z,96777.67
2022-08-22T13:44:37.601Z,96787.08
2022-08-22T13:47:20.332Z,96787.84
2022-08-22T13:49:55.175Z,96794.66
2022-08-22T13:52:52.313Z,96798.36
2022-08-22T13:55:30.117Z,96792.69
2022-08-22T13:58:24.967Z,96790.00
2022-08-22T14:01:04.170Z,96786.20
2022-08-22T14:03:48.469Z,96791.87
2022-08-22T14:06:41.419Z,96788.89
2022-08-22T14:09:32.725Z,96789.34
2022-08-22T14:12:15.418Z,96782.77
2022-08-22T14:14:47.220Z,96777.91
2022-08-22T14:17:19.917Z,96783.19
2022-08-22T14:20:01.716Z,96780.33
2022-08-22T14:22:36.184Z,96769.75
2022-08-22T14:25:21.424Z,96769.56
2022-08-22T14:28:09.592Z,96761.84
2022-08-22T14:31:00.902Z,96767.06
2022-08-22T14:33:40.943Z,96769.69
2022-08-22T14:36:22.505Z,96769.66
2022-08-22T14:39:06.978Z,96770.41
2022-08-22T14:41:52.606Z,96771.77
2022-08-22T14:44:33.560Z,96761.83
2022-08-22T14:47:32.672Z,96760.74
2022-08-22T14:49:59.783Z,96755.06
2022-08-22T14:52:45.332Z,96755.68
2022-08-22T14:55:26.992Z,96757.38
2022-08-22T14:58:05.937Z,96766.61
2022-08-22T15:00:43.605Z,96771.70
2022-08-22T15:03:23.448Z,96762.16
2022-08-22T15:06:07.924Z,96775.25
2022-08-22T15:08:49.481Z,96780.81
2022-08-22T15:11:24.669Z,96792.38
2022-08-22T15:14:15.146Z,96791.69
2022-08-22T15:16:54.032Z,96806.47
2022-08-22T15:19:35.440Z,96814.36
2022-08-22T15:22:20.350Z,96825.61
2022-08-22T15:25:17.775Z,96873.34
2022-08-22T15:28:14.450Z,96914.54
2022-08-22T15:30:49.723Z,96938.36
2022-08-22T15:33:38.579Z,96963.55
2022-08-22T15:36:20.627Z,96961.11
2022-08-22T15:38:56.473Z,96955.64
2022-08-22T15:41:36.702Z,96954.91
2022-08-22T15:44:33.014Z,96945.47
2022-08-22T15:46:58.786Z,96935.03
2022-08-22T15:49:30.898Z,96926.35
2022-08-22T15:52:04.272Z,96927.02
2022-08-22T15:54:51.104Z,96921.94
2022-08-22T15:57:37.776Z,96921.97
2022-08-22T16:00:30.877Z,96925.12
2022-08-22T16:03:04.059Z,96921.97
2022-08-22T16:05:59.166Z,96907.34
2022-08-22T16:08:38.614Z,96901.80
2022-08-22T16:11:32.252Z,96914.34
2022-08-22T16:14:21.385Z,96919.21
2022-08-22T16:16:58.023Z,96936.14
2022-08-22T16:19:29.091Z,96939.07
2022-08-22T16:22:02.214Z,96942.11
2022-08-22T16:24:33.891Z,96943.81
2022-08-22T16:27:16.627Z,96942.75
2022-08-22T16:29:46.208Z,96937.97
2022-08-22T16:32:19.237Z,96930.16
2022-08-22T16:34:47.829Z,96927.22
2022-08-22T16:37:27.047Z,96920.13
2022-08-22T16:40:05.257Z,96912.64
2022-08-22T16:42:40.964Z,96909.25
2022-08-22T16:45:26.230Z,96915.69
2022-08-22T16:47:58.879Z,96919.00
2022-08-22T16:50:40.346Z,96927.27
2022-08-22T16:53:22.305Z,96934.69
2022-08-22T16:56:10.378Z,96941.75
2022-08-22T16:59:22.313Z,96935.36
2022-08-22T17:04:39.511Z,96940.73
2022-08-22T17:07:18.267Z,96937.52
2022-08-22T17:10:17.318Z,96935.11
2022-08-22T17:13:26.582Z,96942.74
2022-08-22T17:16:28.211Z,96937.44
2022-08-22T17:19:16.510Z,96938.08
2022-08-22T17:21:53.686Z,96935.75
2022-08-22T17:24:42.352Z,96935.26
2022-08-22T17:27:39.076Z,96934.91
2022-08-22T17:30:23.319Z,96946.21
2022-08-22T17:33:17.599Z,96943.52
2022-08-22T17:35:54.773Z,96942.60
2022-08-22T17:38:45.419Z,96943.69
2022-08-22T17:41:38.431Z,96945.48
2022-08-22T17:44:39.935Z,96948.33
2022-08-22T17:47:15.641Z,96943.98
2022-08-22T17:50:00.491Z,96939.08
2022-08-22T17:52:33.807Z,96944.20
2022-08-22T17:55:34.318Z,96943.19
2022-08-22T17:58:07.278Z,96946.50
2022-08-22T18:00:48.788Z,96936.11
2022-08-22T18:03:33.684Z,96940.04
2022-08-22T18:06:09.893Z,96939.23
2022-08-22T18:12:04.220Z,96935.73
2022-08-22T18:14:52.342Z,96934.17
2022-08-22T18:17:34.350Z,96933.03
2022-08-22T18:20:10.415Z,96930.07
2022-08-22T18:22:52.208Z,96933.84
2022-08-22T18:25:37.680Z,96935.06
2022-08-22T18:28:10.830Z,96942.97
2022-08-22T18:30:52.418Z,96942.61
2022-08-22T18:33:32.907Z,96935.95
2022-08-22T18:36:15.337Z,96935.95
2022-08-22T18:39:23.459Z,96945.41
2022-08-22T18:42:02.947Z,96946.61
2022-08-22T18:44:34.918Z,96945.41
2022-08-22T18:47:22.447Z,96949.70
2022-08-22T18:49:54.040Z,96941.05
2022-08-22T18:52:30.612Z,96951.28
2022-08-22T18:55:23.163Z,96944.16
2022-08-22T18:58:17.680Z,96940.21
2022-08-22T19:00:59.602Z,96946.91
2022-08-22T19:03:53.339Z,96948.55
2022-08-22T19:06:40.957Z,96952.14
2022-08-22T19:09:33.889Z,96949.41
2022-08-22T19:12:12.971Z,96954.34
2022-08-22T19:15:16.248Z,96953.22
2022-08-22T19:18:01.649Z,96960.55
2022-08-22T19:20:55.286Z,96961.02
2022-08-22T19:23:43.157Z,96965.19
2022-08-22T19:26:37.101Z,96975.03
2022-08-22T19:29:20.976Z,96971.16
2022-08-22T19:32:02.680Z,96977.45
2022-08-22T19:34:36.791Z,96981.20
2022-08-22T19:37:30.433Z,96983.75
2022-08-22T19:40:05.884Z,96992.59
2022-08-22T19:42:38.082Z,96997.87
2022-08-22T19:45:28.560Z,97002.60
2022-08-22T19:48:10.524Z,97002.22
2022-08-22T19:50:37.970Z,97003.21
2022-08-22T19:53:41.610Z,96999.45
2022-08-22T19:56:32.177Z,96996.11
2022-08-22T19:59:14.689Z,96999.45
2022-08-22T20:02:08.998Z,96997.89
2022-08-22T20:04:54.382Z,97004.57
2022-08-22T20:08:04.834Z,97013.81
2022-08-22T20:10:56.322Z,97019.36
2022-08-22T20:13:28.825Z,97018.80
2022-08-22T20:16:07.866Z,97011.77
2022-08-22T20:19:09.225Z,97012.95
2022-08-22T20:21:58.724Z,97016.91
2022-08-22T20:24:40.047Z,97018.48
2022-08-22T20:27:21.925Z,97019.30
2022-08-22T20:30:04.332Z,97024.38
2022-08-22T20:32:39.853Z,97029.51
2022-08-22T20:35:12.516Z,97029.51
2022-08-22T20:38:05.770Z,97039.50
2022-08-22T20:40:56.501Z,97034.59
2022-08-22T20:43:34.612Z,97029.69
2022-08-22T20:46:45.360Z,97032.20
2022-08-22T20:49:22.013Z,97022.77
2022-08-22T20:51:56.911Z,97020.43
2022-08-22T20:54:32.421Z,97016.13
2022-08-22T20:57:15.518Z,97023.38
2022-08-22T20:59:54.799Z,97013.20
2022-08-22T21:02:37.091Z,97012.42
2022-08-22T21:05:17.619Z,97008.49
2022-08-22T21:08:05.825Z,97004.38
2022-08-22T21:10:55.016Z,97009.28
2022-08-22T21:13:31.334Z,97008.73
2022-08-22T21:16:15.976Z,97010.10
2022-08-22T21:18:52.893Z,97017.94
2022-08-22T21:21:28.497Z,97016.75
2022-08-22T21:24:04.573Z,97019.72
2022-08-22T21:26:53.007Z,97020.27
2022-08-22T21:29:26.561Z,97019.48
2022-08-22T21:32:16.283Z,97021.04
2022-08-22T21:34:48.584Z,97026.52
2022-08-22T21:37:24.426Z,97024.91
2022-08-22T21:40:15.830Z,97017.66
2022-08-22T21:43:05.094Z,97012.34
2022-08-22T21:45:43.119Z,97004.28
2022-08-22T21:48:37.181Z,97000.16
2022-08-22T21:51:42.940Z,97006.66
2022-08-22T21:54:35.615Z,97005.67
2022-08-22T21:57:14.417Z,97011.17
2022-08-22T21:59:51.880Z,97001.38
2022-08-22T22:02:39.983Z,97003.75
2022-08-22T22:05:12.857Z,97004.17
2022-08-22T22:07:44.635Z,96998.69
2022-08-22T22:10:16.868Z,97005.56
2022-08-22T22:12:47.401Z,97005.16
2022-08-22T22:15:19.271Z,96995.55
2022-08-22T22:17:47.252Z,97001.85
2022-08-22T22:20:17.193Z,97003.59
2022-08-22T22:22:46.850Z,97003.00
2022-08-22T22:25:40.263Z,96998.28
2022-08-22T22:27:47.399Z,97003.40
2022-08-22T22:30:17.968Z,97000.42
2022-08-22T22:32:48.762Z,97002.20
2022-08-22T22:35:18.833Z,96998.08
2022-08-22T22:37:47.032Z,96998.46
2022-08-22T22:40:14.983Z,96995.12
2022-08-22T22:42:43.061Z,97003.36
2022-08-22T22:45:11.158Z,97007.30
2022-08-22T22:47:38.782Z,97009.27
2022-08-22T22:50:07.864Z,97001.44
2022-08-22T22:52:40.704Z,96999.88
2022-08-22T22:55:07.728Z,97006.35
2022-08-22T22:57:42.488Z,96997.52
2022-08-22T23:00:07.498Z,97002.64
2022-08-22T23:02:35.321Z,97007.36
2022-08-22T23:05:03.249Z,97010.70
2022-08-22T23:07:33.998Z,97016.78
2022-08-22T23:10:02.287Z,97007.73
2022-08-22T23:12:30.228Z,97003.83
2022-08-22T23:14:57.929Z,97008.91
2022-08-22T23:17:26.000Z,97004.20
2022-08-22T23:19:53.703Z,97008.50
2022-08-22T23:22:21.232Z,97011.66
2022-08-22T23:24:50.025Z,97011.65
2022-08-22T23:27:18.117Z,97016.14
2022-08-22T23:29:46.013Z,97012.61
2022-08-22T23:32:14.606Z,97006.70
2022-08-22T23:34:46.188Z,97004.17
2022-08-22T23:37:18.148Z,97004.36
2022-08-22T23:39:46.122Z,97001.03
2022-08-22T23:42:15.921Z,97003.41
2022-08-22T23:44:45.480Z,97006.16
2022-08-22T23:47:14.474Z,97010.09
2022-08-22T23:49:42.755Z,97010.48
2022-08-22T23:52:12.524Z,97015.20
2022-08-22T23:54:40.184Z,97006.77
2022-08-22T23:57:12.160Z,97013.05
2022-08-22T23:59:40.739Z,97010.70
